Search for airport 
image banner adimage banner adimage banner ad
image banner ad

45CA - Chapin Medical Pad Heliport

Located in Corona, United States

ICAO - 45CA, IATA -

Data provided by Airmate  

General information

Coordinates: N37°20'6" W121°59'59"
Elevation is 160 feet MSL.
 
View others Airports in California

Operational data

Special qualification required
Current time UTC:
Current local time:
METAR: KSJC 210953Z AUTO 16004KT 10SM CLR 15/11 A2989 RMK AO2 SLP119 T01500111 $
TAF: KSJC 210541Z 2106/2206 32006KT P6SM BKN250 FM211100 14007KT P6SM SCT250 FM212000 22008KT P6SM SCT250 FM220300 VRB04KT P6SM FEW250
View NOTAMs / SUP AIP / TFR affecting this airport [VIEW]
Communications frequencies: [VIEW]

Runways:

Airport contact information

Address: Corona United States

Satellite view of 45CA